Clearwater, Washington
Current Conditions -  °F | °C
As of 11:44 AM on Thursday 27 Nov 2014 (Local Time) from KUIL Reporting Station
Light Rain Light Rain  
Wind Chill: 55°   Ceiling: 400
Heat Index: 55°   Visibility: 2mi
Dew Point: 55°   Wind: 14mph
Humidity: 100%   Direction: 200°SSW
Pressure: 29.76"   Gusts: 25mph
Location:  47.9519°N, 124.29°W
Report Text: KUIL 271944Z AUTO 20012G22KT 2SM -RA BR OVC004 13/13 A2976 RMK AO2 RAB27 P0004 T01280128
Loading
Personal Weather Stations






























Interactive Weather Map New forecast layout! Learn more

10-Day Weather Forecast

Advertisements
Track Severe Weather on mobile